Time;durP1;ratioP1;P1;durP2;ratioP2;P2;SDS_P1;SDS_P2;PMS_P1;PMS_P2;Temp;Humidity;BMP_temperature;BMP_pressure;BME280_temperature;BME280_humidity;BME280_pressure;Samples;Min_cycle;Max_cycle;Signal;HPM_P1;HPM_P2
2021/04/05 00:02:08;;;;;;;6.78;2.10;;;;;;;26.39;24.94;96405.94;5066623;28;20050;-29
2021/04/05 00:04:34;;;;;;;3.92;1.95;;;;;;;26.39;25.13;96399.88;5062921;28;20040;-24
2021/04/05 00:06:59;;;;;;;4.63;2.17;;;;;;;26.39;25.06;96410.38;5068906;28;20583;-23
2021/04/05 00:09:25;;;;;;;4.45;2.30;;;;;;;26.39;24.93;96405.13;5068266;28;20016;-27
2021/04/05 00:11:50;;;;;;;6.18;2.60;;;;;;;26.39;24.99;96405.13;5067988;28;20036;-29
2021/04/05 00:14:15;;;;;;;5.65;2.30;;;;;;;26.34;25.06;96401.00;5067391;28;20024;-26
2021/04/05 00:16:41;;;;;;;5.43;2.20;;;;;;;26.38;25.06;96404.25;5063471;28;20086;-25
2021/04/05 00:19:06;;;;;;;4.45;2.08;;;;;;;26.38;25.08;96398.19;5065589;28;20020;-24
2021/04/05 00:21:32;;;;;;;4.28;2.25;;;;;;;26.38;25.05;96398.19;5063615;28;20047;-26
2021/04/05 00:23:57;;;;;;;5.05;2.45;;;;;;;26.37;25.03;96407.84;5069072;28;20460;-26
2021/04/05 00:26:22;;;;;;;2.55;1.60;;;;;;;26.37;25.07;96407.84;5066668;28;20020;-28
2021/04/05 00:28:48;;;;;;;4.32;2.15;;;;;;;26.37;25.09;96401.72;5066389;28;20047;-27
2021/04/05 00:31:14;;;;;;;4.22;2.05;;;;;;;26.37;25.08;96399.09;5080184;28;20055;-28
2021/04/05 00:33:39;;;;;;;3.63;1.60;;;;;;;26.35;24.96;96394.78;5066880;28;20020;-25
2021/04/05 00:36:05;;;;;;;3.95;1.92;;;;;;;26.35;24.95;96388.69;5064774;28;20028;-25
2021/04/05 00:38:30;;;;;;;3.63;1.80;;;;;;;26.34;24.98;96387.84;5065967;28;20028;-23
2021/04/05 00:41:00;;;;;;;3.58;1.73;;;;;;;26.34;25.07;96382.59;5068983;28;20020;-23
2021/04/05 00:43:25;;;;;;;4.30;1.92;;;;;;;26.34;24.97;96393.09;5066304;28;20149;-27
2021/04/05 00:45:51;;;;;;;4.15;1.98;;;;;;;26.33;25.16;96396.69;5068362;27;20492;-24
2021/04/05 00:48:17;;;;;;;3.80;1.80;;;;;;;26.33;24.99;96391.44;5062086;28;20033;-31
2021/04/05 00:51:12;;;;;;;5.10;2.20;;;;;;;26.32;24.99;96388.91;5063550;28;20107;-26
2021/04/05 00:53:40;;;;;;;4.32;2.13;;;;;;;26.32;25.02;96378.38;5064090;28;20020;-27
2021/04/05 00:56:06;;;;;;;3.00;1.60;;;;;;;26.31;25.11;96369.66;5067357;28;20649;-24
2021/04/05 00:58:31;;;;;;;6.32;1.90;;;;;;;26.30;25.18;96365.34;5061507;28;20218;-25
2021/04/05 01:01:02;;;;;;;8.23;1.90;;;;;;;26.31;25.14;96367.03;5058280;28;20135;-25
2021/04/05 01:03:30;;;;;;;4.10;1.80;;;;;;;26.31;25.12;96361.78;5076168;28;20705;-25
2021/04/05 01:06:09;;;;;;;3.55;1.90;;;;;;;26.30;25.10;96349.59;5066704;28;20526;-25
2021/04/05 01:08:35;;;;;;;4.57;1.77;;;;;;;26.30;25.10;96338.22;5063841;28;20233;-30
2021/04/05 01:11:00;;;;;;;5.40;1.92;;;;;;;26.29;25.14;96329.50;5068648;28;20017;-23
2021/04/05 01:13:25;;;;;;;3.42;1.90;;;;;;;26.30;24.97;96333.81;5067888;28;20041;-25
2021/04/05 01:15:51;;;;;;;3.10;1.52;;;;;;;26.29;25.08;96331.28;5069453;27;20040;-27
2021/04/05 01:18:17;;;;;;;4.10;1.63;;;;;;;26.30;25.18;96322.47;5068647;28;20039;-24
2021/04/05 01:20:45;;;;;;;1.95;1.27;;;;;;;26.30;25.15;96320.69;5070478;28;20031;-24
2021/04/05 01:23:13;;;;;;;3.80;1.80;;;;;;;26.23;25.03;96319.34;5069690;28;20492;-26
2021/04/05 01:25:38;;;;;;;2.63;1.50;;;;;;;26.29;25.23;96326.88;5070467;28;20580;-28
2021/04/05 01:28:04;;;;;;;4.22;1.45;;;;;;;26.29;24.99;96320.78;5069562;28;20032;-24
2021/04/05 01:30:37;;;;;;;3.47;1.63;;;;;;;26.27;25.05;96318.25;5069610;27;20040;-28
2021/04/05 01:33:19;;;;;;;3.80;1.55;;;;;;;26.28;25.18;96314.66;5068007;28;20039;-27
2021/04/05 01:35:59;;;;;;;2.30;1.55;;;;;;;26.28;25.02;96324.34;5070184;28;20024;-27
2021/04/05 01:38:26;;;;;;;3.38;1.52;;;;;;;26.27;25.09;96318.25;5065929;28;20032;-25
2021/04/05 01:40:56;;;;;;;4.10;1.60;;;;;;;26.26;25.23;96306.06;5068602;28;20403;-27
2021/04/05 01:43:21;;;;;;;4.00;1.70;;;;;;;26.27;25.13;96297.22;5069405;28;20142;-27
2021/04/05 01:45:47;;;;;;;4.22;1.60;;;;;;;26.27;25.23;96291.16;5071006;28;20455;-26
2021/04/05 01:48:15;;;;;;;2.42;1.40;;;;;;;26.25;25.13;96288.59;5065873;28;20038;-27
2021/04/05 01:50:42;;;;;;;3.20;1.70;;;;;;;26.25;25.14;96293.84;5064963;28;20398;-23
2021/04/05 01:53:07;;;;;;;3.03;1.40;;;;;;;26.26;25.21;96284.19;5065059;28;20534;-25
2021/04/05 01:55:33;;;;;;;2.35;1.40;;;;;;;26.24;25.23;96276.41;5078870;28;20107;-25
2021/04/05 01:57:59;;;;;;;2.35;1.20;;;;;;;26.23;25.16;96270.28;5066612;28;20024;-25
2021/04/05 02:00:28;;;;;;;2.47;1.40;;;;;;;26.24;25.17;96260.63;5067252;27;20024;-25
2021/04/05 02:02:56;;;;;;;2.92;1.40;;;;;;;26.23;25.23;96259.78;5068339;28;20029;-25
2021/04/05 02:05:23;;;;;;;4.30;1.70;;;;;;;26.24;25.07;96252.75;5067795;28;20635;-27
2021/04/05 02:07:49;;;;;;;4.53;1.40;;;;;;;26.24;25.26;96263.28;5052440;28;20138;-25
2021/04/05 02:10:21;;;;;;;2.03;1.33;;;;;;;26.23;25.30;96249.28;5071589;28;20031;-24
2021/04/05 02:12:46;;;;;;;3.17;1.38;;;;;;;26.23;25.06;96230.03;5072619;28;20021;-25
2021/04/05 02:15:13;;;;;;;2.08;1.33;;;;;;;26.22;25.24;96231.84;5067728;27;20081;-26
2021/04/05 02:17:39;;;;;;;4.47;1.20;;;;;;;26.23;25.19;96227.41;5066409;28;20628;-26
2021/04/05 02:20:09;;;;;;;2.88;1.20;;;;;;;26.22;25.29;96216.09;5068997;28;20035;-23
2021/04/05 02:22:48;;;;;;;2.03;1.02;;;;;;;26.23;25.29;96214.28;5066455;28;20032;-24
2021/04/05 02:25:20;;;;;;;2.58;1.50;;;;;;;26.22;25.02;96215.22;5068342;28;20051;-28
2021/04/05 02:27:46;;;;;;;2.60;1.20;;;;;;;26.22;25.25;96204.72;5068809;28;20087;-28
2021/04/05 02:30:22;;;;;;;3.08;1.30;;;;;;;26.20;25.07;96201.38;5069793;28;20789;-31
2021/04/05 02:33:09;;;;;;;1.98;1.40;;;;;;;26.21;25.28;96192.53;5066532;28;20020;-26
2021/04/05 02:35:34;;;;;;;2.75;1.27;;;;;;;26.19;25.27;96186.53;5065166;28;20089;-26
2021/04/05 02:38:02;;;;;;;2.25;1.20;;;;;;;26.21;25.11;96195.16;5068111;28;20032;-23
2021/04/05 02:40:27;;;;;;;2.33;1.17;;;;;;;26.20;25.23;96193.50;5069973;28;21061;-24
2021/04/05 02:42:54;;;;;;;2.60;1.27;;;;;;;26.19;25.38;96189.16;5064275;28;20135;-28
2021/04/05 02:45:24;;;;;;;2.78;1.42;;;;;;;26.19;25.25;96189.16;5069543;28;20131;-30
2021/04/05 02:47:54;;;;;;;4.15;1.20;;;;;;;26.19;25.24;96191.78;5061721;28;20028;-26
2021/04/05 02:50:21;;;;;;;2.30;1.17;;;;;;;26.19;25.24;96191.78;5064655;28;20146;-25
2021/04/05 02:52:46;;;;;;;4.00;1.15;;;;;;;26.18;25.27;96187.47;5070266;28;20094;-27
2021/04/05 02:55:12;;;;;;;3.22;1.38;;;;;;;26.19;25.04;96194.41;5066328;28;20522;-26
2021/04/05 02:57:39;;;;;;;2.33;1.17;;;;;;;26.18;25.32;96183.09;5066003;28;20028;-25
2021/04/05 03:00:09;;;;;;;2.83;1.05;;;;;;;26.18;25.15;96182.22;5065938;28;20075;-25
2021/04/05 03:02:35;;;;;;;1.73;1.17;;;;;;;26.18;25.32;96182.22;5066499;28;20068;-25
2021/04/05 03:05:02;;;;;;;2.60;1.25;;;;;;;26.17;25.22;96173.53;5060864;28;20255;-24
2021/04/05 03:07:28;;;;;;;2.00;1.00;;;;;;;26.19;25.29;96181.28;5071239;28;20034;-25
2021/04/05 03:09:53;;;;;;;3.53;1.40;;;;;;;26.18;25.22;96167.31;5066728;28;20028;-25
2021/04/05 03:12:18;;;;;;;1.70;1.13;;;;;;;26.18;25.37;96176.97;5064926;28;20121;-27
2021/04/05 03:14:44;;;;;;;2.15;1.13;;;;;;;26.17;25.30;96164.78;5046865;28;20020;-25
2021/04/05 03:17:09;;;;;;;2.17;1.02;;;;;;;26.17;25.16;96165.66;5063689;28;20039;-26
2021/04/05 03:19:37;;;;;;;1.80;1.00;;;;;;;26.17;25.28;96160.41;5037278;28;20392;-25
2021/04/05 03:22:03;;;;;;;2.17;1.20;;;;;;;26.17;25.32;96149.03;5062334;28;20094;-25
2021/04/05 03:24:29;;;;;;;1.45;0.90;;;;;;;26.17;25.27;96144.63;5066371;28;20071;-23
2021/04/05 03:26:57;;;;;;;2.22;1.25;;;;;;;26.16;25.27;96132.44;5068247;28;20040;-27
2021/04/05 03:29:22;;;;;;;1.48;1.00;;;;;;;26.16;25.17;96121.94;5065351;28;20036;-23
2021/04/05 03:31:48;;;;;;;1.90;1.13;;;;;;;26.16;25.34;96115.84;5066935;28;20028;-28
2021/04/05 03:34:19;;;;;;;1.73;1.00;;;;;;;26.15;25.33;96109.75;5064249;28;20039;-27
2021/04/05 03:36:46;;;;;;;;;;;;;;;26.16;25.27;96094.84;5050269;28;20054;-27
2021/04/05 03:39:15;;;;;;;2.17;0.93;;;;;;;26.16;25.17;96089.59;5064107;28;22438;-28
2021/04/05 03:42:00;;;;;;;1.65;0.98;;;;;;;26.15;25.21;96087.88;5065713;28;20031;-23
2021/04/05 03:44:31;;;;;;;1.60;0.85;;;;;;;26.14;25.38;96081.81;5060874;28;20066;-24
2021/04/05 03:46:59;;;;;;;1.45;0.93;;;;;;;26.13;25.35;96074.03;5060016;28;20056;-24
2021/04/05 03:49:28;;;;;;;1.45;0.95;;;;;;;26.13;25.20;96074.03;5027823;28;20036;-26
2021/04/05 03:52:05;;;;;;;1.38;0.80;;;;;;;26.13;25.35;96074.03;5041656;28;20443;-25
2021/04/05 03:54:39;;;;;;;1.80;0.93;;;;;;;26.12;25.25;96074.97;5065812;28;20029;-23
2021/04/05 03:57:05;;;;;;;1.17;0.80;;;;;;;26.13;25.28;96074.03;5028880;28;20025;-22
2021/04/05 03:59:32;;;;;;;1.50;1.00;;;;;;;26.12;25.33;96077.59;5024323;28;20396;-24
2021/04/05 04:02:00;;;;;;;1.70;0.95;;;;;;;26.11;25.35;96071.50;5060596;28;20036;-28
2021/04/05 04:07:18;;;;;;;1.40;0.80;;;;;;;26.11;25.26;96068.88;5052405;28;20444;-23
2021/04/05 04:09:43;;;;;;;1.60;0.90;;;;;;;26.09;25.42;96058.47;5068071;28;21076;-26
2021/04/05 04:12:14;;;;;;;1.52;0.90;;;;;;;26.09;25.28;96066.34;5048603;28;20038;-25
2021/04/05 04:14:40;;;;;;;2.13;0.90;;;;;;;26.10;25.45;96059.31;5052027;28;20036;-24
2021/04/05 04:17:09;;;;;;;2.08;1.00;;;;;;;26.09;25.37;96053.22;5066212;27;20036;-26
2021/04/05 04:19:38;;;;;;;0.70;0.70;;;;;;;26.08;25.36;96046.28;5067767;28;20507;-26
2021/04/05 04:22:04;;;;;;;1.95;1.00;;;;;;;26.09;25.35;96047.97;5064585;28;20108;-24
2021/04/05 04:24:29;;;;;;;1.88;1.00;;;;;;;26.09;25.40;96042.72;5064956;28;20043;-29
2021/04/05 04:26:54;;;;;;;1.48;0.98;;;;;;;26.09;25.32;96037.47;5069508;28;20028;-27
2021/04/05 04:29:21;;;;;;;2.00;1.20;;;;;;;26.10;25.32;96038.31;5063655;28;20028;-24
2021/04/05 04:31:46;;;;;;;2.00;0.80;;;;;;;26.09;25.42;96032.22;5066521;28;20052;-24
2021/04/05 04:34:15;;;;;;;2.65;1.00;;;;;;;26.09;25.35;96024.34;5061999;28;20136;-25
2021/04/05 04:36:41;;;;;;;0.95;0.70;;;;;;;26.09;25.52;96026.97;5063768;28;20125;-24
2021/04/05 04:39:06;;;;;;;1.33;0.93;;;;;;;26.07;25.35;96020.13;5066921;28;20036;-28
2021/04/05 04:41:32;;;;;;;1.73;0.98;;;;;;;26.08;25.26;96027.91;5067883;28;20824;-26
2021/04/05 04:44:01;;;;;;;4.53;1.88;;;;;;;26.08;25.33;96027.06;5069575;28;20489;-28
2021/04/05 04:46:27;;;;;;;2.60;1.50;;;;;;;26.07;25.35;96020.97;5070677;28;20064;-23
2021/04/05 04:49:03;;;;;;;2.28;1.00;;;;;;;26.07;25.27;96007.84;5066864;28;20177;-23
2021/04/05 04:51:29;;;;;;;1.80;0.95;;;;;;;26.07;25.37;96007.84;5066601;28;20634;-26
2021/04/05 04:53:55;;;;;;;2.15;1.35;;;;;;;26.06;25.42;95995.69;5071011;28;20040;-25
2021/04/05 04:56:21;;;;;;;1.75;1.05;;;;;;;26.05;25.31;96007.09;5069775;28;20027;-25
2021/04/05 04:58:46;;;;;;;2.65;1.00;;;;;;;26.05;25.35;96009.72;5066818;28;20412;-24
2021/04/05 05:01:12;;;;;;;2.72;1.27;;;;;;;26.05;25.33;96006.28;5065789;27;20075;-25
2021/04/05 05:03:50;;;;;;;2.45;1.13;;;;;;;26.04;25.42;96002.78;5064099;28;20036;-26
2021/04/05 05:06:15;;;;;;;1.20;0.77;;;;;;;26.05;25.51;95998.41;5054870;28;20036;-28
2021/04/05 05:08:41;;;;;;;5.03;1.10;;;;;;;26.04;25.23;95981.78;5070914;28;20032;-24
2021/04/05 05:11:07;;;;;;;2.20;1.10;;;;;;;26.04;25.28;95981.78;5069302;28;20111;-25
2021/04/05 05:13:32;;;;;;;1.60;1.00;;;;;;;26.04;25.53;95973.91;5055113;28;20048;-25
2021/04/05 05:15:57;;;;;;;2.42;0.90;;;;;;;26.01;25.40;95960.16;5068844;28;20056;-25
2021/04/05 05:18:23;;;;;;;1.35;0.75;;;;;;;26.05;25.37;95978.22;5066763;28;20025;-25
2021/04/05 05:20:48;;;;;;;1.02;0.70;;;;;;;26.04;25.32;95976.53;5065779;28;20055;-22
2021/04/05 05:23:14;;;;;;;2.40;0.90;;;;;;;26.04;25.53;95971.28;5063971;28;20322;-23
2021/04/05 05:25:39;;;;;;;1.42;0.85;;;;;;;26.03;25.46;95966.13;5068414;28;20046;-24
2021/04/05 05:28:06;;;;;;;1.42;0.80;;;;;;;26.03;25.35;95964.38;5054329;28;20624;-24
2021/04/05 05:30:32;;;;;;;2.58;1.00;;;;;;;26.04;25.39;95954.69;5067849;27;20040;-24
2021/04/05 05:33:00;;;;;;;2.38;0.90;;;;;;;26.04;25.59;95954.69;5069309;28;20082;-27
2021/04/05 05:35:25;;;;;;;1.98;0.77;;;;;;;26.04;25.37;95959.94;5067272;28;20051;-26
2021/04/05 05:37:50;;;;;;;2.47;1.02;;;;;;;26.02;25.34;95954.81;5065616;28;20488;-25
2021/04/05 05:40:22;;;;;;;1.38;0.80;;;;;;;26.04;25.45;95945.03;5054220;28;20109;-24
2021/04/05 05:42:53;;;;;;;1.08;0.80;;;;;;;26.02;25.58;95944.31;5073539;28;20365;-26
2021/04/05 05:45:22;;;;;;;1.25;0.73;;;;;;;26.02;25.33;95936.44;5072028;28;20751;-23
2021/04/05 05:48:06;;;;;;;1.92;0.80;;;;;;;26.02;25.61;95930.34;5064390;28;20463;-24
2021/04/05 05:50:47;;;;;;;0.68;0.60;;;;;;;26.02;25.44;95925.94;5071731;28;20073;-24
2021/04/05 05:53:22;;;;;;;;;;;;;;;26.02;25.58;95920.69;5065821;28;20081;-25
2021/04/05 05:55:54;;;;;;;1.73;1.00;;;;;;;25.96;25.46;95910.59;5067762;28;19919;-25
2021/04/05 05:58:49;;;;;;;2.25;0.80;;;;;;;26.00;25.50;95917.31;5056187;28;20036;-22
2021/04/05 06:01:26;;;;;;;0.80;0.55;;;;;;;26.00;25.49;95916.50;5065637;28;20053;-26
2021/04/05 06:03:58;;;;;;;1.17;0.68;;;;;;;26.00;25.57;95906.00;5070115;28;20482;-27
2021/04/05 06:07:00;;;;;;;1.15;0.82;;;;;;;25.98;25.44;95892.97;5054631;28;20028;-26
2021/04/05 06:09:52;;;;;;;1.38;0.63;;;;;;;25.99;25.28;95899.88;5056203;28;20101;-23
2021/04/05 06:12:24;;;;;;;1.80;0.73;;;;;;;26.00;25.62;95898.13;5067784;28;20046;-25
2021/04/05 06:14:50;;;;;;;6.05;0.85;;;;;;;25.98;25.57;95903.47;5070723;28;20828;-25
2021/04/05 06:17:29;;;;;;;1.42;0.80;;;;;;;25.98;25.48;95906.09;5065721;28;20043;-25
2021/04/05 06:20:10;;;;;;;4.03;1.35;;;;;;;26.00;25.55;95908.63;5063096;28;20024;-27
2021/04/05 06:22:51;;;;;;;2.77;0.67;;;;;;;25.99;25.43;95902.50;5064454;28;20028;-24
2021/04/05 06:25:45;;;;;;;1.13;0.80;;;;;;;25.98;25.60;95898.22;5082238;28;20020;-25
2021/04/05 06:28:13;;;;;;;2.20;0.77;;;;;;;25.94;25.39;95878.38;5066632;28;20036;-28
2021/04/05 06:31:08;;;;;;;1.48;1.00;;;;;;;25.96;25.61;95877.31;5063692;28;20384;-21
2021/04/05 06:33:37;;;;;;;2.10;0.80;;;;;;;25.97;25.60;95875.50;5069218;28;20059;-24
2021/04/05 06:36:35;;;;;;;1.58;0.60;;;;;;;25.96;25.55;95869.44;5066051;28;20028;-23
2021/04/05 06:39:09;;;;;;;1.40;0.75;;;;;;;25.99;25.60;95873.63;5055891;28;20051;-24
2021/04/05 06:41:37;;;;;;;1.98;0.70;;;;;;;25.96;25.72;95865.97;5064657;28;20036;-25
2021/04/05 06:44:30;;;;;;;0.80;0.60;;;;;;;25.96;25.66;95874.69;5068022;28;20034;-26
2021/04/05 06:47:17;;;;;;;15.05;2.45;;;;;;;25.95;25.42;95862.50;5068380;27;20056;-26
2021/04/05 06:50:36;;;;;;;19.13;1.83;;;;;;;25.94;25.50;95865.25;5066662;28;20119;-24
2021/04/05 06:53:32;;;;;;;17.02;1.27;;;;;;;25.93;25.41;95848.63;5043485;28;20070;-24
2021/04/05 06:55:58;;;;;;;9.10;1.13;;;;;;;25.93;25.52;95850.44;5066478;28;20253;-23
2021/04/05 06:58:44;;;;;;;7.30;1.13;;;;;;;25.93;25.57;95839.94;5066419;28;20034;-22
2021/04/05 07:01:48;;;;;;;2.97;1.00;;;;;;;25.88;25.60;95831.53;5063285;27;20049;-26
2021/04/05 07:04:32;;;;;;;12.68;1.10;;;;;;;25.92;25.58;95841.72;5036431;28;20037;-23
2021/04/05 07:07:10;;;;;;;7.20;1.45;;;;;;;25.93;25.67;95847.81;5062644;28;20435;-25
2021/04/05 07:09:44;;;;;;;3.05;1.00;;;;;;;25.93;25.64;95840.75;5063806;28;20029;-24
2021/04/05 07:12:20;;;;;;;3.17;0.88;;;;;;;25.95;25.66;95843.28;5064372;28;20024;-23
2021/04/05 07:15:04;;;;;;;8.88;1.20;;;;;;;25.94;25.75;95841.63;5053256;28;20599;-25
2021/04/05 07:17:41;;;;;;;4.53;1.20;;;;;;;25.94;25.68;95839.00;5064716;27;20150;-25
2021/04/05 07:20:25;;;;;;;3.80;1.10;;;;;;;25.96;25.74;95843.19;5061021;28;20707;-25
2021/04/05 07:22:52;;;;;;;2.70;0.95;;;;;;;25.96;25.92;95842.34;5058727;28;20032;-24
2021/04/05 07:25:37;;;;;;;3.30;1.48;;;;;;;25.98;25.84;95843.09;5063444;28;20553;-24
2021/04/05 07:28:13;;;;;;;2.65;0.90;;;;;;;25.98;25.83;95840.47;5064640;28;20497;-25
2021/04/05 07:30:44;;;;;;;2.15;0.98;;;;;;;25.98;25.77;95829.97;5060702;28;20036;-24
2021/04/05 07:33:21;;;;;;;3.92;1.20;;;;;;;26.00;25.98;95833.31;5050461;28;20044;-23
2021/04/05 07:36:10;;;;;;;2.08;0.98;;;;;;;26.00;25.94;95835.94;5063238;28;20166;-25
2021/04/05 07:38:57;;;;;;;1.92;0.80;;;;;;;26.02;26.03;95830.56;5061633;28;20202;-24
2021/04/05 07:41:38;;;;;;;7.03;1.27;;;;;;;26.02;26.04;95831.44;5058998;28;20114;-26
2021/04/05 07:44:03;;;;;;;2.10;1.00;;;;;;;26.03;26.02;95822.59;5062225;28;20025;-25
2021/04/05 07:46:38;;;;;;;7.22;1.20;;;;;;;26.04;25.90;95829.53;5062866;28;20113;-23
2021/04/05 07:49:19;;;;;;;3.92;1.10;;;;;;;26.05;25.89;95833.81;5064885;28;20028;-26
2021/04/05 07:51:56;;;;;;;;;;;;;;;26.06;26.10;95832.91;5063848;28;20045;-28
2021/04/05 07:54:23;;;;;;;3.15;1.20;;;;;;;26.07;26.02;95824.06;5060232;28;19974;-25
2021/04/05 07:56:51;;;;;;;1.65;0.85;;;;;;;26.07;25.97;95818.81;5064047;28;20078;-25
2021/04/05 07:59:33;;;;;;;2.45;1.05;;;;;;;26.09;25.93;95816.09;5060507;28;20016;-25
2021/04/05 08:02:11;;;;;;;1.85;0.95;;;;;;;26.09;26.02;95822.16;5060476;28;20723;-25
2021/04/05 08:05:16;;;;;;;2.92;1.33;;;;;;;26.10;26.06;95818.59;5064749;28;20135;-27
2021/04/05 08:07:48;;;;;;;2.95;0.93;;;;;;;26.12;25.87;95813.22;5061843;28;20069;-26
2021/04/05 08:10:23;;;;;;;1.73;1.15;;;;;;;26.13;25.99;95807.06;5062336;28;20032;-26
2021/04/05 08:13:10;;;;;;;4.07;1.20;;;;;;;26.14;25.96;95807.88;5047439;28;20039;-27
2021/04/05 08:15:48;;;;;;;7.07;1.13;;;;;;;26.16;26.04;95806.81;5065473;27;20066;-24
2021/04/05 08:18:13;;;;;;;3.95;1.33;;;;;;;26.16;25.88;95800.75;5067876;28;20035;-24
2021/04/05 08:20:46;;;;;;;5.28;1.40;;;;;;;26.18;26.01;95804.09;5065554;28;20036;-26
2021/04/05 08:23:24;;;;;;;11.32;2.70;;;;;;;26.16;25.09;95798.13;5066130;28;20037;-26
2021/04/05 08:26:00;;;;;;;12.30;3.78;;;;;;;26.08;23.52;95796.00;5071850;28;20043;-24
2021/04/05 08:28:39;;;;;;;16.95;4.05;;;;;;;25.93;22.17;95804.00;5070124;28;20024;-26
2021/04/05 08:31:23;;;;;;;13.25;3.92;;;;;;;25.74;21.81;95817.56;5065924;27;20136;-26
2021/04/05 08:34:16;;;;;;;12.50;3.15;;;;;;;25.61;21.44;95808.84;5068955;28;20438;-25
2021/04/05 08:36:50;;;;;;;12.25;2.85;;;;;;;25.54;21.88;95811.00;5069745;28;20024;-25
2021/04/05 08:39:35;;;;;;;9.43;2.38;;;;;;;25.48;22.02;95801.81;5066373;28;20036;-27
2021/04/05 08:42:01;;;;;;;7.85;2.70;;;;;;;25.46;22.20;95808.91;5068943;28;20028;-24
2021/04/05 08:44:44;;;;;;;8.35;2.80;;;;;;;25.46;22.26;95803.66;5067523;28;20054;-22
2021/04/05 08:47:14;;;;;;;5.75;2.40;;;;;;;25.47;22.59;95800.09;5067475;27;20052;-23
2021/04/05 08:49:40;;;;;;;6.32;2.53;;;;;;;25.48;22.32;95801.81;5067795;28;20081;-26
2021/04/05 08:52:10;;;;;;;5.45;2.08;;;;;;;25.50;22.52;95805.16;5049856;28;20035;-25
2021/04/05 08:54:37;;;;;;;5.35;2.40;;;;;;;25.52;22.63;95792.75;5068641;28;20405;-27
2021/04/05 08:57:04;;;;;;;6.88;2.30;;;;;;;25.54;22.66;95796.13;5072862;28;20119;-24
2021/04/05 08:59:40;;;;;;;5.78;2.10;;;;;;;25.56;22.98;95812.63;5052793;28;20089;-25
2021/04/05 09:02:25;;;;;;;7.78;2.22;;;;;;;25.59;22.77;95803.69;5065237;28;20467;-28
2021/04/05 09:04:53;;;;;;;4.93;1.75;;;;;;;25.62;23.06;95797.44;5064587;28;20036;-25
2021/04/05 09:07:34;;;;;;;6.55;2.13;;;;;;;25.64;23.22;95792.91;5067719;28;20057;-25
2021/04/05 09:10:07;;;;;;;5.10;2.10;;;;;;;25.66;23.12;95804.16;5066279;28;20123;-24
2021/04/05 09:12:36;;;;;;;6.47;1.67;;;;;;;25.68;23.22;95797.00;5065434;28;20024;-24
2021/04/05 09:15:26;;;;;;;11.80;1.95;;;;;;;25.70;23.33;95792.47;5069789;28;20062;-24
2021/04/05 09:18:17;;;;;;;4.75;1.73;;;;;;;25.73;23.39;95778.34;5066654;28;20097;-26
2021/04/05 09:20:57;;;;;;;3.50;1.67;;;;;;;25.74;23.51;95775.56;5065066;28;20089;-23
2021/04/05 09:23:45;;;;;;;13.30;3.60;;;;;;;25.76;23.33;95778.09;5064694;28;20147;-25
2021/04/05 09:26:48;;;;;;;12.48;4.43;;;;;;;25.77;23.32;95785.88;5065936;28;20151;-26
2021/04/05 09:29:44;;;;;;;18.25;4.57;;;;;;;25.78;23.37;95769.16;5071902;28;20125;-25
2021/04/05 09:32:44;;;;;;;10.95;3.80;;;;;;;25.79;23.40;95768.25;5062383;28;20509;-27
2021/04/05 09:35:38;;;;;;;18.67;3.35;;;;;;;25.80;23.57;95767.28;5065355;28;20090;-26
2021/04/05 09:38:11;;;;;;;13.45;3.92;;;;;;;25.81;23.42;95776.84;5063336;28;20055;-25
2021/04/05 09:40:58;;;;;;;21.17;3.90;;;;;;;25.81;23.18;95753.22;5064844;28;20055;-24
2021/04/05 09:44:00;;;;;;;10.15;3.10;;;;;;;25.82;23.04;95757.50;5065377;28;20031;-23
2021/04/05 09:46:44;;;;;;;15.10;2.83;;;;;;;25.83;23.59;95750.50;5053365;28;20044;-26
2021/04/05 09:49:24;;;;;;;12.57;2.70;;;;;;;25.82;23.59;95749.66;5064861;28;20040;-25
2021/04/05 09:52:08;;;;;;;7.55;2.50;;;;;;;25.82;23.84;95741.78;5063954;28;20359;-26
2021/04/05 09:54:45;;;;;;;12.57;2.78;;;;;;;25.85;23.79;95750.41;5064146;28;20031;-25
2021/04/05 09:57:33;;;;;;;9.30;2.28;;;;;;;25.85;24.12;95735.47;5063956;28;20153;-28
2021/04/05 09:59:59;;;;;;;9.57;2.63;;;;;;;25.85;23.96;95735.47;5050644;28;20436;-26
2021/04/05 10:02:34;;;;;;;10.98;2.42;;;;;;;25.88;24.13;95734.41;5063246;28;20152;-27
2021/04/05 10:05:00;;;;;;;7.93;2.55;;;;;;;25.88;24.11;95722.13;5069752;28;20024;-25
2021/04/05 10:07:26;;;;;;;8.40;2.10;;;;;;;25.89;24.15;95721.19;5064085;28;20718;-23
2021/04/05 10:09:52;;;;;;;6.45;2.22;;;;;;;25.90;24.30;95719.41;5063762;28;20449;-25
2021/04/05 10:12:18;;;;;;;7.18;2.38;;;;;;;25.92;24.23;95701.75;5060427;28;20426;-25
2021/04/05 10:14:43;;;;;;;8.93;2.67;;;;;;;25.93;24.52;95695.56;5031680;28;20028;-26
2021/04/05 10:17:09;;;;;;;10.60;2.50;;;;;;;25.94;24.55;95705.13;5064127;28;20044;-27
2021/04/05 10:19:36;;;;;;;7.07;2.22;;;;;;;25.95;24.49;95696.28;5064137;28;20038;-24
2021/04/05 10:22:02;;;;;;;5.45;2.00;;;;;;;25.96;24.44;95705.84;5068432;28;20396;-23
2021/04/05 10:24:28;;;;;;;6.80;1.88;;;;;;;25.98;24.55;95697.84;5064382;28;20161;-25
2021/04/05 10:26:54;;;;;;;7.32;2.30;;;;;;;25.96;24.51;95695.34;5064223;28;20069;-25
2021/04/05 10:29:20;;;;;;;4.85;2.00;;;;;;;25.99;24.57;95695.13;5066953;28;20028;-26
2021/04/05 10:31:45;;;;;;;6.68;2.03;;;;;;;25.99;24.61;95684.63;5061414;28;20047;-27
2021/04/05 10:34:11;;;;;;;6.65;2.08;;;;;;;26.01;24.70;95687.16;5046286;28;20028;-24
2021/04/05 10:36:44;;;;;;;6.82;2.28;;;;;;;26.02;24.80;95678.31;5046521;28;20032;-25
2021/04/05 10:39:10;;;;;;;5.65;2.13;;;;;;;26.03;24.84;95677.38;5064515;28;20078;-28
2021/04/05 10:41:42;;;;;;;5.25;1.83;;;;;;;26.02;24.88;95673.06;5061612;28;20492;-23
2021/04/05 10:44:09;;;;;;;4.43;2.00;;;;;;;26.04;24.54;95677.25;5070396;28;20142;-25
2021/04/05 10:46:39;;;;;;;5.47;1.92;;;;;;;26.05;24.81;95678.09;5062847;28;20046;-25
2021/04/05 10:49:09;;;;;;;8.27;1.90;;;;;;;26.05;24.99;95673.69;5063591;28;20031;-25
2021/04/05 10:51:44;;;;;;;4.18;1.80;;;;;;;26.06;24.94;95675.38;5053826;28;20020;-25
2021/04/05 10:54:39;;;;;;;4.90;1.67;;;;;;;26.07;24.93;95661.28;5061137;28;20037;-27
2021/04/05 10:57:17;;;;;;;4.13;1.80;;;;;;;26.07;25.00;95656.03;5061479;28;20341;-24
2021/04/05 10:59:51;;;;;;;7.32;1.63;;;;;;;26.08;25.19;95646.34;5063841;28;20028;-24
2021/04/05 11:02:26;;;;;;;5.55;1.83;;;;;;;26.08;25.02;95636.72;5063581;28;20040;-24
2021/04/05 11:04:56;;;;;;;18.08;1.83;;;;;;;26.10;24.98;95634.78;5061955;28;20616;-27
2021/04/05 11:07:22;;;;;;;4.72;1.70;;;;;;;26.10;25.08;95629.53;5062396;28;20463;-23
2021/04/05 11:09:48;;;;;;;4.38;1.85;;;;;;;26.10;25.08;95632.16;5058693;28;20032;-26
2021/04/05 11:12:13;;;;;;;5.25;1.90;;;;;;;26.10;24.97;95619.03;5062185;28;20043;-26
2021/04/05 11:14:40;;;;;;;7.43;1.50;;;;;;;26.12;24.91;95631.25;5047152;28;20032;-26
2021/04/05 11:17:06;;;;;;;4.43;1.73;;;;;;;26.13;25.06;95617.16;5071906;28;20592;-26
2021/04/05 11:19:37;;;;;;;4.93;1.85;;;;;;;26.13;25.10;95614.53;5060217;28;20031;-26
2021/04/05 11:22:02;;;;;;;6.18;1.42;;;;;;;26.14;25.22;95621.44;5063308;28;20037;-24
2021/04/05 11:24:31;;;;;;;3.28;1.63;;;;;;;26.15;25.20;95625.75;5065642;28;21069;-26
2021/04/05 11:26:56;;;;;;;4.57;1.55;;;;;;;26.16;25.14;95616.94;5064885;28;20084;-24
2021/04/05 11:29:22;;;;;;;5.32;1.45;;;;;;;26.14;25.46;95606.56;5067340;28;20485;-25
2021/04/05 11:31:48;;;;;;;3.80;1.58;;;;;;;26.16;25.17;95616.94;5062369;28;20040;-27
2021/04/05 11:34:17;;;;;;;3.83;1.73;;;;;;;26.16;25.19;95606.44;5058490;28;20392;-25
2021/04/05 11:36:48;;;;;;;3.80;1.75;;;;;;;26.17;25.39;95608.09;5061943;28;20110;-25
2021/04/05 11:39:15;;;;;;;4.53;1.97;;;;;;;26.19;25.36;95614.06;5065234;28;20107;-27
2021/04/05 11:41:41;;;;;;;7.10;1.83;;;;;;;26.18;25.38;95613.25;5067215;28;20033;-28
2021/04/05 11:44:07;;;;;;;5.68;1.90;;;;;;;26.20;25.43;95613.16;5049070;28;20057;-26
2021/04/05 11:46:34;;;;;;;3.80;1.65;;;;;;;26.20;25.63;95621.84;5049003;28;20126;-26
2021/04/05 11:49:19;;;;;;;3.90;1.52;;;;;;;26.21;25.59;95614.81;5063289;28;20475;-24
2021/04/05 11:52:21;;;;;;;7.10;2.00;;;;;;;26.23;25.52;95619.00;5062825;28;20020;-26
2021/04/05 11:54:54;;;;;;;4.53;2.08;;;;;;;26.23;25.72;95611.13;5062487;28;20028;-25
2021/04/05 11:57:43;;;;;;;7.32;1.90;;;;;;;26.24;25.73;95614.59;5056128;28;20044;-25
2021/04/05 12:00:09;;;;;;;6.10;1.80;;;;;;;26.25;25.68;95611.00;5059009;27;20050;-22
2021/04/05 12:02:36;;;;;;;4.18;1.63;;;;;;;26.26;25.89;95617.13;5064602;28;20575;-25